Time;durP1;ratioP1;P1;durP2;ratioP2;P2;SDS_P1;SDS_P2;PMS_P1;PMS_P2;Temp;Humidity;BMP_temperature;BMP_pressure;BME280_temperature;BME280_humidity;BME280_pressure;Samples;Min_cycle;Max_cycle;Signal;HPM_P1;HPM_P2
2023/11/10 00:00:39;;;;;;;;;;;11.70;99.90;;;;;;5020552;28;19916;-70
2023/11/10 00:03:05;;;;;;;;;;;11.90;99.90;;;;;;5036112;28;20393;-70
2023/11/10 00:05:32;;;;;;;;;;;11.90;99.90;;;;;;5036086;28;19909;-69
2023/11/10 00:07:57;;;;;;;;;;;11.80;99.90;;;;;;5035853;28;20447;-74
2023/11/10 00:10:23;;;;;;;;;;;11.80;99.90;;;;;;5035980;28;19956;-69
2023/11/10 00:12:49;;;;;;;;;;;11.80;99.90;;;;;;5021195;28;20324;-74
2023/11/10 00:15:14;;;;;;;;;;;11.80;99.90;;;;;;5032125;28;19909;-70
2023/11/10 00:17:40;;;;;;;;;;;11.70;99.90;;;;;;5035949;28;19909;-69
2023/11/10 00:20:07;;;;;;;;;;;11.70;99.90;;;;;;5035804;28;19921;-69
2023/11/10 00:22:33;;;;;;;;;;;11.60;99.90;;;;;;5035665;28;19913;-69
2023/11/10 00:25:00;;;;;;;;;;;11.60;99.90;;;;;;5035721;28;19909;-69
2023/11/10 00:27:25;;;;;;;;;;;11.50;99.90;;;;;;5035811;28;20367;-75
2023/11/10 00:29:51;;;;;;;;;;;11.50;99.90;;;;;;5035056;28;19916;-69
2023/11/10 00:32:16;;;;;;;;;;;11.50;99.90;;;;;;5035833;28;19913;-74
2023/11/10 00:34:42;;;;;;;;;;;11.40;99.90;;;;;;5035618;28;20145;-74
2023/11/10 00:37:08;;;;;;;;;;;11.30;99.90;;;;;;5035603;28;19909;-69
2023/11/10 00:39:34;;;;;;;;;;;11.30;99.90;;;;;;5035568;28;19948;-69
2023/11/10 00:41:59;;;;;;;;;;;11.30;99.90;;;;;;5034012;28;19913;-69
2023/11/10 00:44:27;;;;;;;;;;;11.30;99.90;;;;;;5035506;28;19917;-74
2023/11/10 00:46:52;;;;;;;;;;;11.20;99.90;;;;;;5035321;28;19963;-74
2023/11/10 00:49:18;;;;;;;;;;;11.20;99.90;;;;;;5034409;28;19913;-70
2023/11/10 00:51:44;;;;;;;;;;;11.10;99.90;;;;;;5034633;28;20292;-70
2023/11/10 00:54:09;;;;;;;;;;;11.10;99.90;;;;;;5027298;28;19973;-69
2023/11/10 00:56:35;;;;;;;;;;;11.10;99.90;;;;;;5014687;28;20285;-74
2023/11/10 00:59:01;;;;;;;;;;;11.00;99.90;;;;;;5015071;28;19996;-74
2023/11/10 01:01:27;;;;;;;;;;;11.10;99.90;;;;;;5025721;28;19963;-74
2023/11/10 01:03:52;;;;;;;;;;;11.10;99.90;;;;;;5035118;28;19951;-70
2023/11/10 01:06:18;;;;;;;;;;;11.10;99.90;;;;;;5034854;28;19910;-70
2023/11/10 01:08:43;;;;;;;;;;;11.10;99.90;;;;;;5034799;28;19909;-70
2023/11/10 01:11:09;;;;;;;;;;;11.10;99.90;;;;;;5033490;28;19932;-74
2023/11/10 01:13:34;;;;;;;;;;;11.10;99.90;;;;;;5017684;28;19913;-74
2023/11/10 01:16:01;;;;;;;;;;;11.10;99.90;;;;;;5034504;28;20400;-69
2023/11/10 01:18:27;;;;;;;;;;;11.20;99.90;;;;;;5035022;28;19916;-74
2023/11/10 01:20:54;;;;;;;;;;;11.20;99.90;;;;;;5034738;28;19917;-70
2023/11/10 01:23:19;;;;;;;;;;;11.20;99.90;;;;;;5034578;28;20364;-70
2023/11/10 01:25:46;;;;;;;;;;;11.30;99.90;;;;;;5034591;28;19909;-74
2023/11/10 01:28:11;;;;;;;;;;;11.30;99.90;;;;;;5034586;28;19968;-69
2023/11/10 01:30:37;;;;;;;;;;;11.30;99.90;;;;;;5034205;28;19917;-70
2023/11/10 01:33:03;;;;;;;;;;;11.40;99.90;;;;;;5034506;28;19921;-70
2023/11/10 01:35:28;;;;;;;;;;;11.40;99.90;;;;;;5034196;28;19913;-70
2023/11/10 01:37:54;;;;;;;;;;;11.50;99.90;;;;;;5034503;28;19909;-75
2023/11/10 01:40:19;;;;;;;;;;;11.50;99.90;;;;;;5034401;28;19913;-74
2023/11/10 01:42:45;;;;;;;;;;;11.50;99.90;;;;;;5034065;28;19913;-75
2023/11/10 01:45:10;;;;;;;;;;;11.50;99.90;;;;;;5034242;28;19916;-69
2023/11/10 01:47:39;;;;;;;;;;;11.60;99.90;;;;;;5034150;28;19917;-74
2023/11/10 01:50:05;;;;;;;;;;;11.50;99.90;;;;;;5032882;28;19916;-75
2023/11/10 01:52:31;;;;;;;;;;;11.40;99.90;;;;;;5030024;28;19917;-74
2023/11/10 01:54:57;;;;;;;;;;;11.50;99.90;;;;;;5022890;28;19910;-70
2023/11/10 01:57:23;;;;;;;;;;;11.40;99.90;;;;;;5014185;28;19914;-70
2023/11/10 01:59:50;;;;;;;;;;;11.50;99.90;;;;;;5014042;28;19910;-70
2023/11/10 02:02:16;;;;;;;;;;;11.50;99.90;;;;;;5014334;28;19959;-74
2023/11/10 02:04:42;;;;;;;;;;;11.50;99.90;;;;;;5014231;28;19917;-75
2023/11/10 02:07:07;;;;;;;;;;;11.50;99.90;;;;;;5014140;28;19961;-70
2023/11/10 02:09:33;;;;;;;;;;;11.50;99.90;;;;;;5014495;28;20315;-70
2023/11/10 02:11:58;;;;;;;;;;;11.40;99.90;;;;;;5022104;28;19940;-75
2023/11/10 02:14:24;;;;;;;;;;;11.50;99.90;;;;;;5033710;28;19916;-75
2023/11/10 02:16:49;;;;;;;;;;;11.40;99.90;;;;;;5033406;28;19913;-75
2023/11/10 02:19:15;;;;;;;;;;;11.40;99.90;;;;;;5033809;28;19913;-75
2023/11/10 02:21:41;;;;;;;;;;;11.50;99.90;;;;;;5033463;28;19932;-70
2023/11/10 02:24:07;;;;;;;;;;;11.60;99.90;;;;;;5033271;28;19910;-74
2023/11/10 02:26:33;;;;;;;;;;;11.50;99.90;;;;;;5033598;28;19944;-70
2023/11/10 02:28:59;;;;;;;;;;;11.50;99.90;;;;;;5033489;28;20376;-70
2023/11/10 02:31:25;;;;;;;;;;;11.40;99.90;;;;;;5033183;28;19964;-74
2023/11/10 02:33:51;;;;;;;;;;;11.40;99.90;;;;;;5033269;28;19924;-70
2023/11/10 02:36:17;;;;;;;;;;;11.40;99.90;;;;;;5032736;28;20368;-70
2023/11/10 02:38:42;;;;;;;;;;;11.50;99.90;;;;;;5033289;28;19959;-70
2023/11/10 02:41:08;;;;;;;;;;;11.50;99.90;;;;;;5033502;28;19909;-70
2023/11/10 02:43:34;;;;;;;;;;;11.60;99.90;;;;;;5033381;28;19916;-74
2023/11/10 02:46:00;;;;;;;;;;;11.60;99.90;;;;;;5033049;28;19909;-70
2023/11/10 02:48:26;;;;;;;;;;;11.50;99.90;;;;;;5033126;28;19909;-74
2023/11/10 02:50:52;;;;;;;;;;;11.30;99.90;;;;;;5033410;28;19959;-70
2023/11/10 02:53:18;;;;;;;;;;;11.20;99.90;;;;;;5025512;28;19917;-70
2023/11/10 02:55:43;;;;;;;;;;;11.20;99.90;;;;;;5019877;28;19914;-74
2023/11/10 02:58:09;;;;;;;;;;;11.10;99.90;;;;;;5013603;28;20442;-74
2023/11/10 03:00:34;;;;;;;;;;;11.10;99.90;;;;;;5018418;28;19914;-70
2023/11/10 03:03:00;;;;;;;;;;;11.00;99.90;;;;;;5013490;28;20394;-70
2023/11/10 03:05:25;;;;;;;;;;;11.00;99.90;;;;;;5012676;28;20004;-75
2023/11/10 03:07:51;;;;;;;;;;;10.90;99.90;;;;;;5013390;28;19909;-75
2023/11/10 03:10:17;;;;;;;;;;;10.90;99.90;;;;;;5013156;28;19959;-75
2023/11/10 03:12:43;;;;;;;;;;;11.00;99.90;;;;;;5030107;28;19917;-70
2023/11/10 03:15:09;;;;;;;;;;;11.10;99.90;;;;;;5036877;28;20395;-70
2023/11/10 03:17:34;;;;;;;;;;;11.10;99.90;;;;;;5036774;28;19913;-70
2023/11/10 03:20:00;;;;;;;;;;;11.10;99.90;;;;;;5037091;28;20280;-75
2023/11/10 03:22:26;;;;;;;;;;;11.20;99.90;;;;;;5036714;28;19931;-75
2023/11/10 03:24:51;;;;;;;;;;;11.20;99.90;;;;;;5037067;28;19963;-75
2023/11/10 03:27:17;;;;;;;;;;;11.20;99.90;;;;;;5036871;28;20338;-75
2023/11/10 03:29:42;;;;;;;;;;;11.30;99.90;;;;;;5036635;28;20007;-70
2023/11/10 03:32:08;;;;;;;;;;;11.40;99.90;;;;;;5036261;28;20016;-75
2023/11/10 03:34:38;;;;;;;;;;;11.30;99.90;;;;;;5035867;28;20276;-70
2023/11/10 03:37:03;;;;;;;;;;;11.40;99.90;;;;;;5036585;28;20314;-75
2023/11/10 03:39:29;;;;;;;;;;;11.40;99.90;;;;;;5036628;28;19915;-75
2023/11/10 03:41:59;;;;;;;;;;;11.40;99.90;;;;;;5036519;28;19909;-75
2023/11/10 03:44:25;;;;;;;;;;;11.40;99.90;;;;;;5036379;28;20326;-70
2023/11/10 03:46:51;;;;;;;;;;;11.40;99.90;;;;;;5036297;28;20023;-75
2023/11/10 03:49:16;;;;;;;;;;;11.50;99.90;;;;;;5051691;28;19909;-75
2023/11/10 03:51:43;;;;;;;;;;;11.50;99.90;;;;;;5035861;28;20323;-70
2023/11/10 03:54:09;;;;;;;;;;;11.40;99.90;;;;;;5029517;28;19913;-70
2023/11/10 03:56:35;;;;;;;;;;;11.40;99.90;;;;;;5015828;28;19913;-70
2023/11/10 03:59:04;;;;;;;;;;;11.40;99.90;;;;;;5016089;28;19916;-75
2023/11/10 04:01:31;;;;;;;;;;;11.40;99.90;;;;;;5027338;28;19909;-74
2023/11/10 04:03:57;;;;;;;;;;;11.40;99.90;;;;;;5036076;28;19983;-70
2023/11/10 04:06:23;;;;;;;;;;;11.40;99.90;;;;;;5036272;28;20376;-70
2023/11/10 04:08:48;;;;;;;;;;;11.50;99.90;;;;;;5036190;28;19909;-70
2023/11/10 04:11:14;;;;;;;;;;;11.50;99.90;;;;;;5034163;28;20268;-75
2023/11/10 04:13:40;;;;;;;;;;;11.60;99.90;;;;;;5019363;28;19909;-74
2023/11/10 04:16:06;;;;;;;;;;;11.50;99.90;;;;;;5035644;28;19909;-70
2023/11/10 04:18:35;;;;;;;;;;;11.50;99.90;;;;;;5034428;28;19920;-70
2023/11/10 04:21:00;;;;;;;;;;;11.50;99.90;;;;;;5027437;28;19917;-74
2023/11/10 04:23:27;;;;;;;;;;;11.60;99.90;;;;;;5014548;28;19916;-70
2023/11/10 04:25:52;;;;;;;;;;;11.50;99.90;;;;;;5031045;28;19910;-74
2023/11/10 04:28:18;;;;;;;;;;;11.50;99.90;;;;;;5015899;28;19910;-75
2023/11/10 04:30:44;;;;;;;;;;;11.60;99.90;;;;;;5015691;28;19922;-70
2023/11/10 04:33:09;;;;;;;;;;;11.60;99.90;;;;;;5015598;28;19953;-70
2023/11/10 04:35:35;;;;;;;;;;;11.60;99.90;;;;;;5023673;28;19920;-70
2023/11/10 04:38:01;;;;;;;;;;;11.60;99.90;;;;;;5035429;28;19952;-75
2023/11/10 04:40:27;;;;;;;;;;;11.70;99.90;;;;;;5035608;28;19955;-75
2023/11/10 04:42:56;;;;;;;;;;;11.70;99.90;;;;;;5035660;28;20526;-71
2023/11/10 04:45:24;;;;;;;;;;;11.70;99.90;;;;;;5035532;28;19909;-70
2023/11/10 04:47:51;;;;;;;;;;;11.70;99.90;;;;;;5035156;28;19956;-70
2023/11/10 04:50:16;;;;;;;;;;;11.70;99.90;;;;;;5035064;28;19940;-71
2023/11/10 04:52:42;;;;;;;;;;;11.60;99.90;;;;;;5030318;28;19917;-75
2023/11/10 04:55:11;;;;;;;;;;;11.50;99.90;;;;;;5024039;28;19910;-75
2023/11/10 04:57:36;;;;;;;;;;;11.40;99.90;;;;;;5015367;28;19940;-71
2023/11/10 05:00:02;;;;;;;;;;;11.40;99.90;;;;;;5015048;28;19909;-75
2023/11/10 05:02:28;;;;;;;;;;;11.40;99.90;;;;;;5033987;28;19913;-70
2023/11/10 05:04:54;;;;;;;;;;;11.40;99.90;;;;;;5035124;28;20291;-75
2023/11/10 05:07:19;;;;;;;;;;;11.40;99.90;;;;;;5035017;28;19909;-70
2023/11/10 05:09:45;;;;;;;;;;;11.30;99.90;;;;;;5034801;28;19909;-71
2023/11/10 05:12:10;;;;;;;;;;;11.30;99.90;;;;;;5025139;28;20468;-75
2023/11/10 05:14:39;;;;;;;;;;;11.30;99.90;;;;;;5025051;28;20421;-71
2023/11/10 05:17:05;;;;;;;;;;;11.30;99.90;;;;;;5034810;28;19913;-75
2023/11/10 05:19:31;;;;;;;;;;;11.30;99.90;;;;;;5034640;28;19963;-75
2023/11/10 05:21:56;;;;;;;;;;;11.30;99.90;;;;;;5033925;28;19952;-71
2023/11/10 05:24:23;;;;;;;;;;;11.20;99.90;;;;;;5034687;28;20288;-71
2023/11/10 05:26:49;;;;;;;;;;;11.20;99.90;;;;;;5026468;28;19913;-70
2023/11/10 05:29:14;;;;;;;;;;;11.20;99.90;;;;;;5017950;28;19916;-70
2023/11/10 05:31:40;;;;;;;;;;;11.20;99.90;;;;;;5014369;28;19921;-75
2023/11/10 05:34:06;;;;;;;;;;;11.30;99.90;;;;;;5014583;28;19909;-75
2023/11/10 05:36:31;;;;;;;;;;;11.30;99.90;;;;;;5014204;28;20388;-70
2023/11/10 05:38:57;;;;;;;;;;;11.30;99.90;;;;;;5014316;28;19914;-70
2023/11/10 05:41:23;;;;;;;;;;;11.30;99.90;;;;;;5014829;28;19914;-71
2023/11/10 05:43:49;;;;;;;;;;;11.40;99.90;;;;;;5014330;28;20372;-75
2023/11/10 05:46:14;;;;;;;;;;;11.50;99.90;;;;;;5014499;28;19909;-75
2023/11/10 05:48:40;;;;;;;;;;;11.50;99.90;;;;;;5014311;28;19909;-70
2023/11/10 05:51:05;;;;;;;;;;;11.50;99.90;;;;;;5014291;28;20399;-71
2023/11/10 05:53:32;;;;;;;;;;;11.40;99.90;;;;;;5021076;28;19917;-70
2023/11/10 05:55:59;;;;;;;;;;;11.30;99.90;;;;;;5019087;28;19964;-75
2023/11/10 05:58:24;;;;;;;;;;;11.20;99.90;;;;;;5014076;28;20377;-71
2023/11/10 06:00:51;;;;;;;;;;;11.20;99.90;;;;;;5012859;28;19948;-71
2023/11/10 06:03:17;;;;;;;;;;;11.10;99.90;;;;;;5032597;28;19909;-70
2023/11/10 06:05:42;;;;;;;;;;;11.10;99.90;;;;;;5030201;28;20000;-74
2023/11/10 06:08:08;;;;;;;;;;;11.10;99.90;;;;;;5024491;28;20013;-71
2023/11/10 06:10:34;;;;;;;;;;;11.20;99.90;;;;;;5013874;28;19909;-75
2023/11/10 06:13:00;;;;;;;;;;;11.30;99.90;;;;;;5030798;28;19959;-75
2023/11/10 06:15:27;;;;;;;;;;;11.20;99.90;;;;;;5032681;28;20306;-71
2023/11/10 06:17:53;;;;;;;;;;;11.30;99.90;;;;;;5033715;28;20264;-70
2023/11/10 06:20:20;;;;;;;;;;;11.30;99.90;;;;;;5033385;28;20303;-70
2023/11/10 06:22:45;;;;;;;;;;;11.30;99.90;;;;;;5033493;28;19909;-74
2023/11/10 06:25:11;;;;;;;;;;;11.30;99.90;;;;;;5033230;28;20269;-74
2023/11/10 06:27:37;;;;;;;;;;;11.30;99.90;;;;;;5033346;28;19913;-71
2023/11/10 06:30:03;;;;;;;;;;;11.30;99.90;;;;;;5033325;28;19916;-70
2023/11/10 06:32:30;;;;;;;;;;;11.30;99.90;;;;;;5033346;28;19917;-72
2023/11/10 06:34:56;;;;;;;;;;;11.40;99.90;;;;;;5027812;28;19952;-71
2023/11/10 06:37:23;;;;;;;;;;;11.30;99.90;;;;;;5012914;28;19956;-75
2023/11/10 06:39:49;;;;;;;;;;;11.30;99.90;;;;;;5019703;28;19909;-71
2023/11/10 06:42:14;;;;;;;;;;;11.30;99.90;;;;;;5033084;28;19923;-71
2023/11/10 06:44:40;;;;;;;;;;;11.30;99.90;;;;;;5032984;28;20338;-70
2023/11/10 06:47:07;;;;;;;;;;;11.30;99.90;;;;;;5032351;28;19913;-71
2023/11/10 06:49:32;;;;;;;;;;;11.40;99.90;;;;;;5032965;28;19916;-71
2023/11/10 06:51:58;;;;;;;;;;;11.40;99.90;;;;;;5030940;28;19920;-74
2023/11/10 06:54:24;;;;;;;;;;;11.40;99.90;;;;;;5024732;28;20264;-71
2023/11/10 06:56:50;;;;;;;;;;;11.50;99.90;;;;;;5027262;28;19921;-70
2023/11/10 06:59:16;;;;;;;;;;;11.50;99.90;;;;;;5013210;28;20373;-71
2023/11/10 07:01:42;;;;;;;;;;;11.50;99.90;;;;;;5020278;28;19957;-75
2023/11/10 07:04:07;;;;;;;;;;;11.60;99.90;;;;;;5022358;28;20430;-75
2023/11/10 07:06:33;;;;;;;;;;;11.50;99.90;;;;;;5032270;28;20291;-71
2023/11/10 07:08:58;;;;;;;;;;;11.50;99.90;;;;;;5023453;28;19943;-74
2023/11/10 07:11:24;;;;;;;;;;;11.40;99.90;;;;;;5016456;28;19921;-71
2023/11/10 07:13:52;;;;;;;;;;;11.60;99.90;;;;;;5031997;28;20321;-74
2023/11/10 07:16:20;;;;;;;;;;;11.60;99.90;;;;;;5015624;28;20092;-75
2023/11/10 07:18:48;;;;;;;;;;;11.60;99.90;;;;;;5013408;28;20363;-74
2023/11/10 07:21:14;;;;;;;;;;;11.70;99.90;;;;;;5025655;28;19932;-71
2023/11/10 07:23:39;;;;;;;;;;;11.70;99.90;;;;;;5016985;28;20000;-74
2023/11/10 07:26:05;;;;;;;;;;;11.60;99.90;;;;;;5012685;28;19913;-75
2023/11/10 07:28:30;;;;;;;;;;;11.70;99.90;;;;;;5024079;28;20442;-74
2023/11/10 07:30:56;;;;;;;;;;;11.70;99.90;;;;;;5027222;28;20005;-74
2023/11/10 07:33:22;;;;;;;;;;;11.70;99.90;;;;;;5012752;28;19920;-71
2023/11/10 07:35:47;;;;;;;;;;;11.90;99.90;;;;;;5020473;28;20004;-71
2023/11/10 07:38:13;;;;;;;;;;;11.90;99.90;;;;;;5028153;28;19913;-75
2023/11/10 07:40:38;;;;;;;;;;;12.00;99.90;;;;;;5031352;28;20354;-71
2023/11/10 07:43:04;;;;;;;;;;;12.10;99.90;;;;;;5031425;28;19909;-75
2023/11/10 07:45:33;;;;;;;;;;;12.20;99.90;;;;;;5031745;28;19917;-71
2023/11/10 07:47:58;;;;;;;;;;;12.20;99.90;;;;;;5031636;28;19940;-71
2023/11/10 07:50:24;;;;;;;;;;;12.20;99.90;;;;;;5031311;28;19910;-71
2023/11/10 07:52:50;;;;;;;;;;;12.10;99.90;;;;;;5025086;28;20307;-71
2023/11/10 07:55:15;;;;;;;;;;;12.20;99.90;;;;;;5020058;28;20261;-75
2023/11/10 07:57:42;;;;;;;;;;;12.20;99.90;;;;;;5031555;28;19920;-77
2023/11/10 08:00:11;;;;;;;;;;;11.70;99.90;;;;;;5021065;28;19917;-72
2023/11/10 08:02:36;;;;;;;;;;;11.10;99.90;;;;;;5044859;28;19922;-72
2023/11/10 08:05:02;;;;;;;;;;;10.80;99.90;;;;;;5024090;28;19936;-72
2023/11/10 08:07:28;;;;;;;;;;;10.70;99.90;;;;;;5023288;28;19910;-71
2023/11/10 08:09:53;;;;;;;;;;;10.70;99.90;;;;;;5014751;28;19921;-71
2023/11/10 08:12:19;;;;;;;;;;;10.80;99.90;;;;;;5025640;28;19913;-71
2023/11/10 08:14:45;;;;;;;;;;;10.80;99.90;;;;;;5029388;28;19917;-77
2023/11/10 08:17:11;;;;;;;;;;;11.00;99.90;;;;;;5018564;28;19936;-76
2023/11/10 08:19:37;;;;;;;;;;;11.20;99.90;;;;;;5049378;28;19948;-77
2023/11/10 08:22:02;;;;;;;;;;;11.20;99.90;;;;;;5045936;28;19913;-76
2023/11/10 08:24:30;;;;;;;;;;;11.40;99.90;;;;;;5022339;28;19913;-71
2023/11/10 08:26:57;;;;;;;;;;;11.60;99.90;;;;;;5034023;28;19913;-71
2023/11/10 08:29:22;;;;;;;;;;;11.70;99.90;;;;;;5023103;28;19913;-71
2023/11/10 08:31:49;;;;;;;;;;;11.50;99.90;;;;;;5022108;28;19925;-71
2023/11/10 08:34:15;;;;;;;;;;;11.40;99.90;;;;;;5019972;28;19914;-76
2023/11/10 08:36:41;;;;;;;;;;;11.20;99.90;;;;;;5014501;28;19914;-71
2023/11/10 08:39:07;;;;;;;;;;;11.20;99.90;;;;;;5012862;28;20000;-71
2023/11/10 08:41:32;;;;;;;;;;;11.40;99.90;;;;;;5027850;28;19947;-75
2023/11/10 08:43:58;;;;;;;;;;;11.70;99.90;;;;;;5033750;28;20422;-70
2023/11/10 08:46:24;;;;;;;;;;;12.00;99.90;;;;;;5033749;28;19917;-76
2023/11/10 08:48:50;;;;;;;;;;;12.10;99.90;;;;;;5033269;28;20340;-75
2023/11/10 08:51:15;;;;;;;;;;;12.20;99.90;;;;;;5032404;28;19924;-70
2023/11/10 08:53:44;;;;;;;;;;;12.30;99.90;;;;;;5021724;28;19925;-71
2023/11/10 08:56:11;;;;;;;;;;;12.40;99.90;;;;;;5028657;28;20388;-70
2023/11/10 08:58:36;;;;;;;;;;;12.40;99.90;;;;;;5030798;28;20285;-70
2023/11/10 09:01:02;;;;;;;;;;;12.50;99.90;;;;;;5024125;28;19925;-71
2023/11/10 09:03:28;;;;;;;;;;;12.60;99.90;;;;;;5024720;28;19963;-72
2023/11/10 09:05:53;;;;;;;;;;;12.70;99.90;;;;;;5015383;28;19921;-70
2023/11/10 09:08:19;;;;;;;;;;;12.80;99.90;;;;;;5023839;28;19913;-71
2023/11/10 09:10:44;;;;;;;;;;;12.80;99.90;;;;;;5025063;28;19913;-75
2023/11/10 09:13:10;;;;;;;;;;;12.90;99.90;;;;;;5031187;28;19913;-71
2023/11/10 09:15:36;;;;;;;;;;;13.10;99.90;;;;;;5025325;28;20441;-70
2023/11/10 09:18:02;;;;;;;;;;;13.20;99.90;;;;;;5013457;28;19913;-71
2023/11/10 09:20:28;;;;;;;;;;;13.20;99.90;;;;;;5013396;28;19925;-71
2023/11/10 09:22:53;;;;;;;;;;;13.20;99.90;;;;;;5013305;28;19927;-71
2023/11/10 09:25:20;;;;;;;;;;;13.10;99.90;;;;;;5013259;28;20380;-75
2023/11/10 09:27:46;;;;;;;;;;;13.10;99.90;;;;;;5012997;28;20007;-74
2023/11/10 09:30:12;;;;;;;;;;;13.30;99.90;;;;;;5013254;28;20341;-75
2023/11/10 09:32:37;;;;;;;;;;;13.30;99.90;;;;;;5013290;28;20016;-71
2023/11/10 09:35:03;;;;;;;;;;;13.40;99.90;;;;;;5011521;28;20019;-74
2023/11/10 09:37:29;;;;;;;;;;;13.40;99.90;;;;;;5017268;28;19913;-75
2023/11/10 09:39:54;;;;;;;;;;;13.20;99.90;;;;;;5013225;28;19924;-75
2023/11/10 09:42:22;;;;;;;;;;;13.30;99.90;;;;;;5032585;28;20394;-71
2023/11/10 09:44:55;;;;;;;;;;;13.40;99.90;;;;;;5021768;28;19917;-71
2023/11/10 09:47:25;;;;;;;;;;;13.60;99.90;;;;;;5013129;28;20445;-72
2023/11/10 09:49:51;;;;;;;;;;;13.90;99.90;;;;;;5012311;28;19921;-71
2023/11/10 09:52:18;;;;;;;;;;;14.10;99.90;;;;;;5014134;28;19917;-75
2023/11/10 09:54:46;;;;;;;;;;;14.20;99.90;;;;;;5022459;28;19986;-71
2023/11/10 09:57:12;;;;;;;;;;;14.00;99.90;;;;;;5031521;28;20006;-71
2023/11/10 09:59:38;;;;;;;;;;;13.70;99.90;;;;;;5024458;28;20036;-71
2023/11/10 10:02:04;;;;;;;;;;;13.50;99.90;;;;;;5028099;28;19917;-71
2023/11/10 10:04:29;;;;;;;;;;;13.50;99.90;;;;;;5032161;28;19909;-75
2023/11/10 10:06:56;;;;;;;;;;;13.60;99.90;;;;;;5031225;28;19936;-75
2023/11/10 10:09:21;;;;;;;;;;;13.80;99.90;;;;;;5026794;28;19931;-71
2023/11/10 10:11:47;;;;;;;;;;;13.80;99.90;;;;;;5019288;28;19921;-71
2023/11/10 10:14:12;;;;;;;;;;;13.90;99.90;;;;;;5028420;28;19913;-75
2023/11/10 10:16:38;;;;;;;;;;;14.00;99.90;;;;;;5011783;28;20020;-75
2023/11/10 10:19:04;;;;;;;;;;;14.10;99.90;;;;;;5011952;28;19922;-75
2023/11/10 10:21:40;;;;;;;;;;;14.10;99.90;;;;;;5011855;28;20307;-75
2023/11/10 10:24:06;;;;;;;;;;;14.10;99.90;;;;;;5012467;28;19917;-72
2023/11/10 10:26:32;;;;;;;;;;;14.20;99.90;;;;;;5012509;28;20277;-71
2023/11/10 10:29:00;;;;;;;;;;;14.30;99.90;;;;;;5011654;28;20581;-75
2023/11/10 10:31:27;;;;;;;;;;;14.30;99.90;;;;;;5011928;28;19921;-75
2023/11/10 10:33:53;;;;;;;;;;;14.40;99.90;;;;;;5018117;28;20427;-72
2023/11/10 10:36:19;;;;;;;;;;;14.30;99.90;;;;;;5022066;28;19917;-75
2023/11/10 10:38:47;;;;;;;;;;;14.10;99.90;;;;;;5018491;28;20277;-71
2023/11/10 10:41:14;;;;;;;;;;;14.10;99.90;;;;;;5022944;28;19963;-72
2023/11/10 10:43:40;;;;;;;;;;;14.30;99.90;;;;;;5031766;28;19909;-75
2023/11/10 10:46:07;;;;;;;;;;;14.30;99.90;;;;;;5014105;28;20296;-75
2023/11/10 10:48:33;;;;;;;;;;;14.30;99.90;;;;;;5015101;28;20015;-75
2023/11/10 10:51:00;;;;;;;;;;;14.60;99.90;;;;;;5027728;28;19981;-72
2023/11/10 10:53:26;;;;;;;;;;;14.60;99.90;;;;;;5024480;28;19972;-75
2023/11/10 10:55:53;;;;;;;;;;;14.70;99.90;;;;;;5029549;28;19917;-75
2023/11/10 10:58:22;;;;;;;;;;;14.70;99.90;;;;;;5031633;28;19909;-72
2023/11/10 11:00:48;;;;;;;;;;;14.80;99.90;;;;;;5026136;28;19941;-72
2023/11/10 11:03:33;;;;;;;;;;;15.00;99.90;;;;;;5030142;28;20479;-76
2023/11/10 11:06:01;;;;;;;;;;;15.10;99.90;;;;;;5023072;28;19972;-72
2023/11/10 11:08:30;;;;;;;;;;;14.70;99.90;;;;;;5030143;28;19909;-77
2023/11/10 11:11:12;;;;;;;;;;;13.70;99.90;;;;;;5030536;28;19998;-76
2023/11/10 11:13:46;;;;;;;;;;;12.80;99.90;;;;;;5024489;28;20384;-77
2023/11/10 11:16:37;;;;;;;;;;;12.10;99.90;;;;;;5014724;28;20384;-75
2023/11/10 11:19:19;;;;;;;;;;;11.60;99.90;;;;;;5011649;28;19928;-75
2023/11/10 11:21:45;;;;;;;;;;;11.20;99.90;;;;;;5010863;28;20368;-76
2023/11/10 11:24:12;;;;;;;;;;;11.20;99.90;;;;;;5011687;28;19947;-76
2023/11/10 11:26:37;;;;;;;;;;;11.20;99.90;;;;;;5011597;28;19941;-72
2023/11/10 11:29:07;;;;;;;;;;;11.20;99.90;;;;;;5011797;28;19968;-72
2023/11/10 11:31:48;;;;;;;;;;;11.20;99.90;;;;;;5016602;28;19997;-76
2023/11/10 11:34:16;;;;;;;;;;;11.30;99.90;;;;;;5031118;28;20059;-72
2023/11/10 11:36:45;;;;;;;;;;;11.60;99.90;;;;;;5030941;28;19913;-76
2023/11/10 11:39:15;;;;;;;;;;;11.90;99.90;;;;;;5032839;28;19913;-72
2023/11/10 11:41:48;;;;;;;;;;;12.10;99.90;;;;;;5034655;28;19996;-76
2023/11/10 11:44:24;;;;;;;;;;;12.50;99.90;;;;;;5017002;28;19983;-72
2023/11/10 11:46:53;;;;;;;;;;;12.90;99.90;;;;;;5015280;28;20004;-76
2023/11/10 11:49:20;;;;;;;;;;;13.50;99.90;;;;;;5013395;28;19917;-77
2023/11/10 11:51:49;;;;;;;;;;;13.70;99.90;;;;;;5014767;28;20438;-76
2023/11/10 11:54:15;;;;;;;;;;;13.40;99.90;;;;;;5040909;28;19928;-73
2023/11/10 11:56:43;;;;;;;;;;;12.90;99.90;;;;;;5034656;28;19917;-72
2023/11/10 11:59:09;;;;;;;;;;;12.50;99.90;;;;;;5017763;28;19914;-71
2023/11/10 12:01:38;;;;;;;;;;;12.40;99.90;;;;;;5026129;28;20387;-76
2023/11/10 12:04:04;;;;;;;;;;;12.30;99.90;;;;;;5034383;28;19959;-72
2023/11/10 12:06:30;;;;;;;;;;;12.40;99.90;;;;;;5034708;28;19914;-76
2023/11/10 12:08:56;;;;;;;;;;;12.40;99.90;;;;;;5021183;28;19968;-73
2023/11/10 12:11:22;;;;;;;;;;;12.70;99.90;;;;;;5016815;28;19918;-72
2023/11/10 12:13:48;;;;;;;;;;;13.10;99.90;;;;;;5032901;28;19921;-75
2023/11/10 12:16:15;;;;;;;;;;;13.50;99.90;;;;;;5035749;28;20372;-75
2023/11/10 12:18:40;;;;;;;;;;;13.60;99.90;;;;;;5024585;28;19913;-72
2023/11/10 12:21:07;;;;;;;;;;;13.80;99.90;;;;;;5015903;28;19996;-72
2023/11/10 12:23:32;;;;;;;;;;;14.20;99.90;;;;;;5015844;28;19913;-72
2023/11/10 12:25:58;;;;;;;;;;;14.40;99.90;;;;;;5015482;28;19921;-75
2023/11/10 12:28:24;;;;;;;;;;;14.90;99.90;;;;;;5015839;28;20300;-75
2023/11/10 12:30:49;;;;;;;;;;;14.30;99.90;;;;;;5015644;28;19921;-72
2023/11/10 12:33:16;;;;;;;;;;;13.90;99.90;;;;;;5014311;28;20062;-75
2023/11/10 12:35:41;;;;;;;;;;;13.80;99.90;;;;;;5015299;28;19917;-72
2023/11/10 12:38:10;;;;;;;;;;;14.50;99.90;;;;;;5015453;28;20372;-75
2023/11/10 12:40:39;;;;;;;;;;;15.50;99.90;;;;;;5015361;28;19909;-75
2023/11/10 12:43:07;;;;;;;;;;;16.10;99.90;;;;;;5028123;28;20391;-75
2023/11/10 12:45:32;;;;;;;;;;;16.30;99.90;;;;;;5032620;28;19909;-72
2023/11/10 12:48:00;;;;;;;;;;;15.80;99.90;;;;;;5033320;28;20463;-72
2023/11/10 12:50:27;;;;;;;;;;;15.30;99.90;;;;;;5033711;28;19913;-71
2023/11/10 12:52:53;;;;;;;;;;;15.40;99.90;;;;;;5024376;28;19920;-75
2023/11/10 12:55:19;;;;;;;;;;;15.20;99.90;;;;;;5028390;28;19913;-75
2023/11/10 12:57:47;;;;;;;;;;;14.90;99.90;;;;;;5012813;28;19913;-75
2023/11/10 13:00:15;;;;;;;;;;;14.80;99.90;;;;;;5014238;28;19917;-72
2023/11/10 13:02:44;;;;;;;;;;;15.00;99.90;;;;;;5033131;28;20007;-72
2023/11/10 13:05:11;;;;;;;;;;;14.50;99.90;;;;;;5032629;28;19924;-75
2023/11/10 13:07:36;;;;;;;;;;;14.10;99.90;;;;;;5032952;28;20435;-75
2023/11/10 13:10:06;;;;;;;;;;;13.80;99.90;;;;;;5033046;28;19939;-75
2023/11/10 13:12:33;;;;;;;;;;;13.60;99.90;;;;;;5032255;28;19924;-72
2023/11/10 13:14:58;;;;;;;;;;;13.80;99.90;;;;;;5032886;28;19924;-75
2023/11/10 13:17:24;;;;;;;;;;;13.50;99.90;;;;;;5031485;28;19917;-73
2023/11/10 13:19:50;;;;;;;;;;;13.50;99.90;;;;;;5011972;28;19925;-75
2023/11/10 13:22:17;;;;;;;;;;;13.60;99.90;;;;;;5013053;28;19910;-75
2023/11/10 13:24:43;;;;;;;;;;;13.70;99.90;;;;;;5013245;28;20304;-73
2023/11/10 13:27:12;;;;;;;;;;;14.00;99.90;;;;;;5012833;28;19914;-75
2023/11/10 13:29:38;;;;;;;;;;;14.10;99.90;;;;;;5031869;28;20296;-73
2023/11/10 13:32:04;;;;;;;;;;;14.30;99.90;;;;;;5032563;28;20404;-75
2023/11/10 13:34:31;;;;;;;;;;;14.60;99.90;;;;;;5032586;28;19928;-75
2023/11/10 13:36:57;;;;;;;;;;;14.70;99.90;;;;;;5032661;28;19909;-75
2023/11/10 13:39:25;;;;;;;;;;;14.80;99.90;;;;;;5024398;28;19917;-73
2023/11/10 13:41:50;;;;;;;;;;;15.00;99.90;;;;;;5019694;28;20002;-73
2023/11/10 13:44:17;;;;;;;;;;;14.70;99.90;;;;;;5032351;28;19948;-76
2023/11/10 13:46:42;;;;;;;;;;;14.90;99.90;;;;;;5032297;28;19909;-75
2023/11/10 13:49:08;;;;;;;;;;;15.20;99.90;;;;;;5032234;28;20312;-73
2023/11/10 13:51:34;;;;;;;;;;;15.40;99.90;;;;;;5030707;28;19944;-73
2023/11/10 13:54:00;;;;;;;;;;;15.10;99.90;;;;;;5024426;28;19917;-75
2023/11/10 13:56:25;;;;;;;;;;;14.80;99.90;;;;;;5031941;28;19909;-72
2023/11/10 13:58:53;;;;;;;;;;;15.10;99.90;;;;;;5020972;28;20012;-76
2023/11/10 14:01:19;;;;;;;;;;;15.40;99.90;;;;;;5018016;28;19952;-73
2023/11/10 14:03:44;;;;;;;;;;;15.30;99.90;;;;;;5012263;28;19967;-73
2023/11/10 14:06:10;;;;;;;;;;;15.30;99.90;;;;;;5012686;28;19909;-73
2023/11/10 14:08:39;;;;;;;;;;;15.20;99.90;;;;;;5012420;28;19975;-75
2023/11/10 14:11:08;;;;;;;;;;;15.20;99.90;;;;;;5012977;28;20277;-75